Time;durP1;ratioP1;P1;durP2;ratioP2;P2;SDS_P1;SDS_P2;PMS_P1;PMS_P2;Temp;Humidity;BMP_temperature;BMP_pressure;BME280_temperature;BME280_humidity;BME280_pressure;Samples;Min_cycle;Max_cycle;Signal;HPM_P1;HPM_P2
2020/12/06 00:00:23;;;;;;;35.92;19.17;;;;;;;1.53;97.76;98260.81;6167820;23;20090;-72
2020/12/06 00:02:48;;;;;;;32.58;17.35;;;;;;;1.53;97.93;98259.97;6192981;23;20329;-73
2020/12/06 00:05:14;;;;;;;30.75;15.98;;;;;;;1.50;97.85;98258.63;6192859;23;20052;-73
2020/12/06 00:07:39;;;;;;;28.63;16.30;;;;;;;1.53;97.89;98262.69;6192674;23;20330;-73
2020/12/06 00:10:08;;;;;;;32.25;16.90;;;;;;;1.51;97.79;98259.47;6218843;23;20059;-72
2020/12/06 00:12:37;;;;;;;30.10;15.80;;;;;;;1.50;97.84;98266.81;6167982;23;20005;-72
2020/12/06 00:15:06;;;;;;;30.55;15.70;;;;;;;1.50;97.81;98268.75;6220047;23;20056;-72
2020/12/06 00:17:32;;;;;;;28.42;15.82;;;;;;;1.49;97.79;98267.94;6221040;23;20376;-72
2020/12/06 00:19:58;;;;;;;26.25;14.15;;;;;;;1.49;97.74;98278.06;6221011;23;20012;-72
2020/12/06 00:22:23;;;;;;;28.60;14.70;;;;;;;1.47;97.80;98280.28;6221024;23;20012;-72
2020/12/06 00:24:49;;;;;;;23.92;15.10;;;;;;;1.45;97.84;98277.84;6220079;23;20017;-72
2020/12/06 00:27:15;;;;;;;28.27;15.85;;;;;;;1.42;97.62;98270.22;6194189;23;20012;-72
2020/12/06 00:29:41;;;;;;;26.10;14.15;;;;;;;1.41;97.67;98286.91;6193604;23;20630;-72
2020/12/06 00:32:06;;;;;;;26.67;13.32;;;;;;;1.39;97.60;98284.44;6194659;23;20063;-72
2020/12/06 00:34:32;;;;;;;25.55;14.52;;;;;;;1.38;97.66;98282.03;6220638;23;20345;-72
2020/12/06 00:36:58;;;;;;;23.55;13.50;;;;;;;1.36;97.41;98290.50;6220730;23;20009;-72
2020/12/06 00:39:23;;;;;;;24.17;13.52;;;;;;;1.36;97.48;98290.50;6220469;23;20067;-72
2020/12/06 00:41:49;;;;;;;23.15;13.35;;;;;;;1.33;97.54;98285.59;6221090;23;20060;-72
2020/12/06 00:44:14;;;;;;;21.23;12.95;;;;;;;1.33;97.87;98294.63;6220553;23;20016;-72
2020/12/06 00:46:40;;;;;;;22.38;12.75;;;;;;;1.33;97.78;98299.28;6194412;23;20013;-73
2020/12/06 00:49:05;;;;;;;36.45;18.63;;;;;;;1.37;97.83;98307.75;6194138;23;20036;-72
2020/12/06 00:51:31;;;;;;;56.47;26.13;;;;;;;1.35;98.05;98310.75;6220671;23;20070;-72
2020/12/06 00:53:57;;;;;;;63.53;32.25;;;;;;;1.36;98.10;98312.38;6220065;23;20012;-72
2020/12/06 00:56:22;;;;;;;66.35;33.92;;;;;;;1.36;97.93;98315.13;6169447;23;20012;-72
2020/12/06 00:58:48;;;;;;;72.03;34.92;;;;;;;1.37;97.92;98315.94;6220978;23;20016;-72
2020/12/06 01:01:15;;;;;;;69.40;36.10;;;;;;;1.37;98.43;98315.94;6220332;23;20008;-72
2020/12/06 01:03:40;;;;;;;72.53;35.00;;;;;;;1.36;97.98;98320.59;6194278;23;20096;-72
2020/12/06 01:06:07;;;;;;;69.45;34.70;;;;;;;1.37;98.05;98313.22;6169842;23;20001;-72
2020/12/06 01:08:33;;;;;;;68.28;34.72;;;;;;;1.37;98.23;98322.22;6193556;23;20008;-72
2020/12/06 01:10:58;;;;;;;69.25;33.47;;;;;;;1.38;98.32;98326.59;6193642;23;20512;-72
2020/12/06 01:13:24;;;;;;;62.70;31.55;;;;;;;1.39;98.18;98325.47;6169142;23;20009;-72
2020/12/06 01:15:49;;;;;;;53.95;27.50;;;;;;;1.39;98.37;98327.41;6220884;23;20013;-72
2020/12/06 01:18:15;;;;;;;60.55;29.02;;;;;;;1.40;98.44;98327.13;6220019;23;20329;-72
2020/12/06 01:20:40;;;;;;;54.92;26.73;;;;;;;1.43;98.63;98344.88;6194126;23;20016;-72
2020/12/06 01:23:06;;;;;;;49.67;24.60;;;;;;;1.45;98.83;98342.66;6194352;23;20016;-73
2020/12/06 01:25:31;;;;;;;46.00;23.58;;;;;;;1.49;99.12;98355.47;6170634;23;20319;-73
2020/12/06 01:27:57;;;;;;;50.58;24.60;;;;;;;1.53;99.16;98350.25;6160384;23;20010;-73
2020/12/06 01:30:23;;;;;;;45.05;24.13;;;;;;;1.55;99.38;98362.53;6133295;23;20342;-72
2020/12/06 01:32:48;;;;;;;47.05;25.50;;;;;;;1.61;99.50;98362.50;6159577;23;20013;-72
2020/12/06 01:35:14;;;;;;;47.30;22.58;;;;;;;1.65;99.48;98369.03;6158798;23;20016;-73
2020/12/06 01:37:39;;;;;;;43.38;22.05;;;;;;;1.68;99.67;98369.28;6160376;23;20068;-73
2020/12/06 01:40:05;;;;;;;39.40;21.73;;;;;;;1.73;99.78;98379.38;6160387;23;20016;-73
2020/12/06 01:42:30;;;;;;;43.00;21.63;;;;;;;1.77;100.00;98383.16;6134527;23;20006;-72
2020/12/06 01:44:57;;;;;;;38.03;21.05;;;;;;;1.81;100.00;98386.91;6134559;23;20005;-72
2020/12/06 01:47:23;;;;;;;40.85;20.85;;;;;;;1.86;100.00;98392.34;6160039;23;20037;-72
2020/12/06 01:49:49;;;;;;;38.50;20.23;;;;;;;1.89;100.00;98391.78;6159389;23;20016;-72
2020/12/06 01:52:15;;;;;;;41.15;20.77;;;;;;;1.94;99.74;98393.66;6109578;23;20331;-72
2020/12/06 01:54:40;;;;;;;37.05;19.13;;;;;;;1.98;100.00;98400.19;6158191;23;20005;-73
2020/12/06 01:57:06;;;;;;;40.25;18.75;;;;;;;2.02;100.00;98403.97;6159073;23;20002;-72
2020/12/06 01:59:32;;;;;;;34.72;19.15;;;;;;;2.04;100.00;98406.44;6158781;23;20009;-72
2020/12/06 02:02:02;;;;;;;32.72;18.83;;;;;;;2.08;100.00;98411.03;6158761;23;20374;-73
2020/12/06 02:04:28;;;;;;;35.80;18.80;;;;;;;2.11;100.00;98415.09;6158398;23;20016;-73
2020/12/06 02:06:55;;;;;;;34.38;18.55;;;;;;;2.14;100.00;98423.56;6158839;23;20064;-73
2020/12/06 02:09:20;;;;;;;34.70;19.45;;;;;;;2.16;100.00;98415.88;6159814;23;20125;-73
2020/12/06 02:11:46;;;;;;;31.85;19.00;;;;;;;2.19;100.00;98425.44;6134271;23;20005;-72
2020/12/06 02:14:12;;;;;;;38.35;19.38;;;;;;;2.21;100.00;98424.03;6109580;23;20025;-73
2020/12/06 02:16:38;;;;;;;34.38;18.80;;;;;;;2.23;99.96;98430.06;6160160;23;20346;-73
2020/12/06 02:19:06;;;;;;;29.15;17.13;;;;;;;2.24;100.00;98430.88;6160414;23;20002;-73
2020/12/06 02:21:38;;;;;;;36.58;19.17;;;;;;;2.27;99.70;98435.75;6158404;23;20320;-73
2020/12/06 02:24:04;;;;;;;29.10;17.53;;;;;;;2.29;99.70;98432.75;6133888;23;20014;-72
2020/12/06 02:26:40;;;;;;;33.13;17.75;;;;;;;2.29;99.57;98439.03;6158539;23;20082;-73
2020/12/06 02:29:05;;;;;;;31.02;17.60;;;;;;;2.30;99.62;98432.44;6159880;23;20009;-73
2020/12/06 02:31:31;;;;;;;26.40;16.02;;;;;;;2.31;99.57;98442.28;6157518;23;20320;-72
2020/12/06 02:33:57;;;;;;;31.20;17.60;;;;;;;2.33;99.53;98436.53;6159939;23;20028;-73
2020/12/06 02:36:22;;;;;;;28.75;17.75;;;;;;;2.34;99.52;98438.97;6159697;23;20297;-73
2020/12/06 02:38:51;;;;;;;25.50;15.40;;;;;;;2.36;99.48;98444.16;6158234;23;20002;-73
2020/12/06 02:41:17;;;;;;;26.85;16.38;;;;;;;2.36;99.53;98447.69;6133876;23;20326;-73
2020/12/06 02:43:42;;;;;;;27.48;16.00;;;;;;;2.38;99.31;98450.97;6158534;23;20005;-73
2020/12/06 02:46:08;;;;;;;28.83;16.65;;;;;;;2.38;99.26;98450.16;6159728;23;20013;-73
2020/12/06 02:48:34;;;;;;;25.10;15.38;;;;;;;2.40;99.10;98456.19;6158614;23;20060;-73
2020/12/06 02:50:59;;;;;;;29.48;16.38;;;;;;;2.40;99.18;98456.19;6159921;23;20005;-72
2020/12/06 02:53:25;;;;;;;29.60;15.38;;;;;;;2.41;99.20;98460.53;6158319;23;20013;-73
2020/12/06 02:55:50;;;;;;;27.52;15.50;;;;;;;2.41;99.11;98457.81;6157887;23;20005;-73
2020/12/06 02:58:16;;;;;;;25.80;14.50;;;;;;;2.41;99.02;98458.63;6158673;23;20033;-73
2020/12/06 03:00:41;;;;;;;24.67;14.88;;;;;;;2.42;98.93;98459.44;6159801;23;20017;-72
2020/12/06 03:03:07;;;;;;;26.50;15.05;;;;;;;2.42;99.00;98460.25;6109162;23;20020;-73
2020/12/06 03:05:32;;;;;;;22.80;13.95;;;;;;;2.43;98.85;98461.88;6109591;23;20005;-73
2020/12/06 03:07:58;;;;;;;26.60;14.85;;;;;;;2.44;98.88;98465.44;6158850;23;20446;-73
2020/12/06 03:10:23;;;;;;;20.25;13.68;;;;;;;2.44;98.78;98469.00;6157593;23;20009;-73
2020/12/06 03:12:49;;;;;;;24.10;13.88;;;;;;;2.46;98.72;98474.19;6133824;23;20009;-73
2020/12/06 03:15:15;;;;;;;23.17;14.32;;;;;;;2.46;98.75;98483.22;6158243;23;20366;-73
2020/12/06 03:17:40;;;;;;;24.45;13.40;;;;;;;2.47;98.85;98486.78;6160578;23;20076;-73
2020/12/06 03:20:06;;;;;;;26.33;13.52;;;;;;;2.46;98.97;98483.22;6159748;23;20042;-73
2020/12/06 03:22:32;;;;;;;21.30;13.27;;;;;;;2.47;98.79;98495.00;6158021;23;20338;-73
2020/12/06 03:25:00;;;;;;;24.02;14.15;;;;;;;2.48;98.76;98491.16;6167965;23;20021;-73
2020/12/06 03:27:25;;;;;;;24.92;13.45;;;;;;;2.47;98.88;98495.81;6188660;23;20009;-73
2020/12/06 03:29:51;;;;;;;22.98;13.50;;;;;;;2.50;99.09;98504.56;6162787;23;20013;-72
2020/12/06 03:32:16;;;;;;;24.05;13.60;;;;;;;2.49;98.99;98503.75;6212700;23;20009;-73
2020/12/06 03:34:42;;;;;;;21.73;12.93;;;;;;;2.50;98.95;98499.06;6187969;23;20017;-72
2020/12/06 03:37:07;;;;;;;22.38;13.02;;;;;;;2.50;98.74;98501.81;6163709;23;20013;-73
2020/12/06 03:39:33;;;;;;;23.73;12.50;;;;;;;2.53;98.75;98509.47;6162867;23;20005;-73
2020/12/06 03:41:58;;;;;;;20.35;12.60;;;;;;;2.54;98.87;98511.09;6189343;23;20009;-73
2020/12/06 03:44:24;;;;;;;21.60;12.00;;;;;;;2.54;98.74;98514.66;6187760;23;20009;-73
2020/12/06 03:46:49;;;;;;;20.35;12.50;;;;;;;2.55;98.68;98512.72;6190093;23;20036;-73
2020/12/06 03:49:15;;;;;;;19.23;11.93;;;;;;;2.54;98.65;98503.69;6188294;23;20016;-73
2020/12/06 03:51:40;;;;;;;22.20;12.52;;;;;;;2.57;98.57;98516.00;6189843;23;20013;-73
2020/12/06 03:54:06;;;;;;;18.00;11.23;;;;;;;2.56;98.58;98514.34;6189116;23;20009;-73
2020/12/06 03:56:32;;;;;;;20.63;11.25;;;;;;;2.57;98.48;98516.00;6164986;23;20009;-73
2020/12/06 03:58:57;;;;;;;18.27;11.32;;;;;;;2.58;98.48;98517.63;6189862;23;20012;-73
2020/12/06 04:01:23;;;;;;;17.30;11.50;;;;;;;2.58;98.56;98512.97;6189818;23;20013;-73
2020/12/06 04:03:48;;;;;;;17.42;11.38;;;;;;;2.60;98.53;98526.38;6165255;23;20009;-73
2020/12/06 04:06:14;;;;;;;20.95;12.35;;;;;;;2.61;98.60;98519.78;6191440;23;20009;-73
2020/12/06 04:08:39;;;;;;;19.60;11.20;;;;;;;2.61;98.87;98522.53;6189321;23;20012;-73
2020/12/06 04:11:05;;;;;;;20.05;11.75;;;;;;;2.62;98.87;98524.19;6214126;23;20009;-73
2020/12/06 04:13:32;;;;;;;18.27;10.93;;;;;;;2.63;98.70;98528.53;6189588;23;20005;-73
2020/12/06 04:15:58;;;;;;;18.83;11.82;;;;;;;2.65;99.08;98534.56;6189818;23;20020;-73
2020/12/06 04:18:24;;;;;;;15.75;11.52;;;;;;;2.66;99.48;98533.44;6191186;23;20005;-73
2020/12/06 04:20:49;;;;;;;21.98;13.13;;;;;;;2.68;100.00;98544.94;6190854;23;20009;-73
2020/12/06 04:23:15;;;;;;;19.10;12.27;;;;;;;2.69;99.85;98541.88;6190614;23;20009;-73
2020/12/06 04:25:40;;;;;;;23.58;12.82;;;;;;;2.72;100.00;98545.97;6208719;23;20012;-73
2020/12/06 04:28:10;;;;;;;20.45;12.55;;;;;;;2.73;100.00;98550.38;6220762;23;20005;-73
2020/12/06 04:30:38;;;;;;;19.25;13.05;;;;;;;2.74;100.00;98549.25;6194466;23;20005;-73
2020/12/06 04:33:04;;;;;;;19.35;12.27;;;;;;;2.77;100.00;98551.41;6194803;23;20012;-73
2020/12/06 04:35:29;;;;;;;20.58;12.65;;;;;;;2.80;100.00;98553.56;6170086;23;20008;-73
2020/12/06 04:37:55;;;;;;;19.48;12.00;;;;;;;2.81;100.00;98549.72;6194625;23;20005;-73
2020/12/06 04:40:21;;;;;;;18.40;11.18;;;;;;;2.82;100.00;98551.38;6168921;23;20376;-73
2020/12/06 04:42:47;;;;;;;16.30;10.52;;;;;;;2.85;100.00;98561.75;6220780;23;20009;-73
2020/12/06 04:45:15;;;;;;;17.33;10.90;;;;;;;2.88;100.00;98563.09;6170188;23;20016;-73
2020/12/06 04:47:59;;;;;;;14.25;9.73;;;;;;;2.91;100.00;98565.25;6145310;23;20019;-73
2020/12/06 04:50:37;;;;;;;13.43;9.35;;;;;;;2.91;100.00;98568.78;6171770;23;20376;-73
2020/12/06 04:53:05;;;;;;;13.98;9.07;;;;;;;2.95;100.00;98570.94;6195335;23;20005;-73
2020/12/06 04:55:34;;;;;;;14.30;9.38;;;;;;;2.96;100.00;98576.16;6193949;23;20004;-73
2020/12/06 04:58:00;;;;;;;12.38;8.65;;;;;;;2.99;100.00;98585.72;6220914;23;20433;-73
2020/12/06 05:00:36;;;;;;;12.73;7.93;;;;;;;3.01;100.00;98583.50;6169504;23;20373;-73
2020/12/06 05:03:09;;;;;;;11.55;7.28;;;;;;;3.04;100.00;98593.91;6169364;23;20051;-73
2020/12/06 05:05:41;;;;;;;7.95;5.65;;;;;;;3.09;100.00;98586.44;6194494;23;20012;-73
2020/12/06 05:08:09;;;;;;;7.20;4.07;;;;;;;3.08;100.00;98586.72;6220389;23;20088;-73
2020/12/06 05:10:36;;;;;;;7.45;4.13;;;;;;;3.06;100.00;98584.25;6193945;23;20001;-73
2020/12/06 05:13:01;;;;;;;6.72;3.10;;;;;;;3.07;100.00;98585.09;6169424;23;20008;-72
2020/12/06 05:15:27;;;;;;;5.28;2.80;;;;;;;3.07;100.00;98596.88;6220301;23;20004;-73
2020/12/06 05:17:54;;;;;;;7.57;2.70;;;;;;;3.07;100.00;98593.31;6194199;23;19997;-73
2020/12/06 05:20:19;;;;;;;4.07;1.40;;;;;;;3.05;100.00;98595.53;6169737;23;20084;-73
2020/12/06 05:22:45;;;;;;;3.70;1.25;;;;;;;3.02;100.00;98599.66;6194083;23;20013;-73
2020/12/06 05:25:14;;;;;;;2.10;1.23;;;;;;;3.03;100.00;98595.00;6219404;23;20460;-73
2020/12/06 05:27:40;;;;;;;2.35;1.02;;;;;;;3.01;100.00;98598.06;6168899;23;20023;-73
2020/12/06 05:30:06;;;;;;;2.97;0.93;;;;;;;2.98;100.00;98609.59;6169121;23;20425;-73
2020/12/06 05:32:32;;;;;;;3.10;0.55;;;;;;;2.96;100.00;98605.50;6168872;23;20196;-73
2020/12/06 05:34:58;;;;;;;2.75;0.80;;;;;;;2.91;100.00;98609.13;6193788;23;20012;-73
2020/12/06 05:37:24;;;;;;;4.68;0.70;;;;;;;2.90;100.00;98616.53;6193693;23;20005;-73
2020/12/06 05:40:05;;;;;;;3.00;0.55;;;;;;;2.90;100.00;98618.47;6193732;23;20016;-73
2020/12/06 05:42:38;;;;;;;3.15;0.60;;;;;;;2.87;100.00;98613.53;6170380;23;20032;-73
2020/12/06 05:45:04;;;;;;;;;;;;;;;2.83;100.00;98616.03;6221017;23;20012;-73
2020/12/06 05:47:29;;;;;;;3.80;0.70;;;;;;;2.84;100.00;98614.13;6220203;23;19908;-73
2020/12/06 05:49:56;;;;;;;0.90;0.60;;;;;;;2.82;100.00;98627.31;6220303;23;20333;-73
2020/12/06 05:52:23;;;;;;;3.55;0.85;;;;;;;2.81;100.00;98618.25;6193704;23;20116;-73
2020/12/06 05:54:48;;;;;;;1.55;0.60;;;;;;;2.80;100.00;98626.78;6168530;23;20004;-73
2020/12/06 05:57:14;;;;;;;2.28;0.65;;;;;;;2.78;100.00;98624.31;6143831;23;20016;-73
2020/12/06 05:59:40;;;;;;;4.53;0.90;;;;;;;2.78;100.00;98627.06;6169376;23;20034;-73
2020/12/06 06:02:06;;;;;;;3.83;0.77;;;;;;;2.78;100.00;98627.06;6168610;23;20012;-73
2020/12/06 06:04:32;;;;;;;4.47;0.88;;;;;;;2.78;100.00;98632.53;6168400;23;20005;-73
2020/12/06 06:06:57;;;;;;;2.70;0.98;;;;;;;2.78;100.00;98637.22;6168646;23;20016;-73
2020/12/06 06:09:23;;;;;;;3.00;0.90;;;;;;;2.78;100.00;98631.72;6168000;23;20008;-73
2020/12/06 06:11:56;;;;;;;5.22;0.80;;;;;;;2.76;100.00;98634.78;6168914;23;20008;-73
2020/12/06 06:14:22;;;;;;;4.25;1.08;;;;;;;2.77;100.00;98646.53;6219991;23;20005;-73
2020/12/06 06:16:48;;;;;;;3.40;0.77;;;;;;;2.78;100.00;98638.00;6168420;23;20012;-73
2020/12/06 06:19:14;;;;;;;4.20;1.08;;;;;;;2.79;100.00;98638.88;6168770;23;20001;-73
2020/12/06 06:21:40;;;;;;;7.63;1.15;;;;;;;2.80;100.00;98645.97;6144532;23;20016;-73
2020/12/06 06:24:10;;;;;;;4.13;1.35;;;;;;;2.80;100.00;98646.78;6192581;23;20015;-73
2020/12/06 06:26:39;;;;;;;7.35;1.25;;;;;;;2.81;100.00;98642.91;6169247;23;20013;-73
2020/12/06 06:29:12;;;;;;;4.47;1.30;;;;;;;2.82;100.00;98646.50;6169001;23;20005;-73
2020/12/06 06:31:38;;;;;;;3.65;0.75;;;;;;;2.84;100.00;98636.88;6219526;23;20016;-73
2020/12/06 06:34:05;;;;;;;2.47;0.80;;;;;;;2.83;100.00;98645.38;6193382;23;20012;-73
2020/12/06 06:36:31;;;;;;;1.75;0.93;;;;;;;2.83;100.00;98653.63;6193157;23;20004;-73
2020/12/06 06:38:57;;;;;;;1.30;0.70;;;;;;;2.83;100.00;98654.44;6167841;23;20417;-73
2020/12/06 06:41:24;;;;;;;2.47;0.70;;;;;;;2.85;100.00;98657.69;6168988;23;20448;-73
2020/12/06 06:43:50;;;;;;;2.45;1.15;;;;;;;2.85;100.00;98659.63;6193579;23;20396;-71
2020/12/06 06:46:18;;;;;;;0.80;0.68;;;;;;;2.86;100.00;98664.00;6192987;23;20013;-73
2020/12/06 06:48:48;;;;;;;5.95;0.90;;;;;;;2.85;100.00;98665.94;6168825;23;20035;-73
2020/12/06 06:51:18;;;;;;;1.25;0.80;;;;;;;2.86;100.00;98662.06;6168820;23;20008;-73
2020/12/06 06:53:44;;;;;;;1.33;0.70;;;;;;;2.89;100.00;98674.38;6193368;23;20008;-73
2020/12/06 06:56:10;;;;;;;0.77;0.60;;;;;;;2.88;100.00;98670.03;6219159;23;20079;-73
2020/12/06 06:58:35;;;;;;;0.65;0.57;;;;;;;2.88;100.00;98668.09;6193060;23;20011;-73
2020/12/06 07:01:33;;;;;;;0.93;0.65;;;;;;;2.88;100.00;98679.06;6168578;23;20017;-73
2020/12/06 07:03:59;;;;;;;1.15;0.63;;;;;;;2.88;100.00;98679.06;6160425;23;20012;-73
2020/12/06 07:06:54;;;;;;;1.00;0.80;;;;;;;2.88;100.00;98676.31;6168206;23;20058;-73
2020/12/06 07:09:29;;;;;;;3.00;0.98;;;;;;;2.89;100.00;98683.44;6173053;23;20135;-73
2020/12/06 07:11:58;;;;;;;2.03;0.90;;;;;;;2.91;100.00;98683.97;6193169;23;20009;-73
2020/12/06 07:14:25;;;;;;;1.77;0.95;;;;;;;2.91;100.00;98683.97;6219652;23;20012;-73
2020/12/06 07:16:56;;;;;;;1.10;0.90;;;;;;;2.90;100.00;98690.56;6144519;23;20009;-73
2020/12/06 07:19:22;;;;;;;1.25;1.02;;;;;;;2.91;100.00;98696.88;6169122;23;20004;-73
2020/12/06 07:21:48;;;;;;;3.17;0.98;;;;;;;2.91;100.00;98696.88;6168580;23;20329;-73
2020/12/06 07:24:15;;;;;;;4.22;1.30;;;;;;;2.90;100.00;98707.00;6219595;23;20515;-73
2020/12/06 07:26:44;;;;;;;2.90;1.00;;;;;;;2.90;100.00;98709.75;6171090;23;20012;-73
2020/12/06 07:29:10;;;;;;;2.28;1.40;;;;;;;2.90;100.00;98707.00;6195053;23;20440;-73
2020/12/06 07:31:35;;;;;;;5.22;2.05;;;;;;;2.91;100.00;98694.94;6194665;23;20004;-73
2020/12/06 07:34:02;;;;;;;3.25;1.70;;;;;;;2.93;100.00;98696.59;6221426;23;20016;-73
2020/12/06 07:36:31;;;;;;;3.03;1.80;;;;;;;2.93;100.00;98705.63;6221682;23;20047;-74
2020/12/06 07:38:58;;;;;;;4.00;2.22;;;;;;;2.91;100.00;98708.63;6194410;23;20414;-73
2020/12/06 07:41:23;;;;;;;4.15;2.63;;;;;;;2.90;100.00;98712.50;6170476;23;20009;-73
2020/12/06 07:43:55;;;;;;;3.97;2.28;;;;;;;2.89;100.00;98702.63;6195047;23;20009;-73
2020/12/06 07:46:21;;;;;;;6.65;3.22;;;;;;;2.90;100.00;98712.50;6221545;23;20023;-73
2020/12/06 07:48:48;;;;;;;6.70;3.40;;;;;;;2.89;100.00;98708.09;6195231;23;20061;-72
2020/12/06 07:51:13;;;;;;;6.78;3.20;;;;;;;2.87;100.00;98715.81;6194743;23;20009;-73
2020/12/06 07:53:46;;;;;;;5.07;2.92;;;;;;;2.89;100.00;98716.34;6194749;23;20310;-73
2020/12/06 07:56:12;;;;;;;;;;;;;;;2.88;100.00;98714.72;6195147;23;20323;-73
2020/12/06 07:58:40;;;;;;;7.85;4.40;;;;;;;2.86;100.00;98716.91;6221633;23;19993;-73
2020/12/06 08:01:06;;;;;;;8.32;4.78;;;;;;;2.86;100.00;98719.66;6145468;23;20028;-73
2020/12/06 08:03:31;;;;;;;9.48;5.40;;;;;;;2.86;100.00;98733.34;6170486;23;20342;-73
2020/12/06 08:05:58;;;;;;;3.88;2.38;;;;;;;2.88;100.00;98725.66;6170225;23;20055;-73
2020/12/06 08:08:23;;;;;;;6.68;4.18;;;;;;;2.86;100.00;98727.88;6194810;23;20111;-73
2020/12/06 08:10:53;;;;;;;7.38;4.50;;;;;;;2.86;100.00;98727.06;6169694;23;20005;-73
2020/12/06 08:13:19;;;;;;;7.05;4.00;;;;;;;2.87;100.00;98723.19;6194664;23;20012;-73
2020/12/06 08:15:46;;;;;;;8.07;5.40;;;;;;;2.87;100.00;98721.31;6194792;23;20009;-73
2020/12/06 08:18:16;;;;;;;7.75;5.22;;;;;;;2.88;100.00;98725.66;6195393;23;20009;-73
2020/12/06 08:20:54;;;;;;;10.23;5.75;;;;;;;2.90;100.00;98734.44;6194688;23;20445;-72
2020/12/06 08:23:33;;;;;;;10.07;6.28;;;;;;;3.04;100.00;98733.78;6170525;23;20051;-73
2020/12/06 08:25:58;;;;;;;8.63;5.25;;;;;;;3.05;100.00;98730.72;6142005;23;20013;-73
2020/12/06 08:28:24;;;;;;;8.00;6.15;;;;;;;3.07;100.00;98738.69;6160236;23;20442;-73
2020/12/06 08:30:50;;;;;;;10.93;6.22;;;;;;;3.07;100.00;98734.00;6132307;23;20009;-74
2020/12/06 08:33:22;;;;;;;12.30;7.03;;;;;;;3.09;100.00;98731.81;6159045;23;20016;-73
2020/12/06 08:35:48;;;;;;;14.90;6.60;;;;;;;3.09;100.00;98720.00;6134293;23;20009;-73
2020/12/06 08:38:17;;;;;;;9.05;6.38;;;;;;;3.09;100.00;98720.84;6134779;23;20071;-73
2020/12/06 08:41:05;;;;;;;11.63;6.55;;;;;;;3.12;100.00;98738.63;6160465;23;20021;-73
2020/12/06 08:43:47;;;;;;;10.32;6.30;;;;;;;3.12;100.00;98733.97;6159252;23;20014;-74
2020/12/06 08:46:16;;;;;;;16.95;10.43;;;;;;;3.12;100.00;98731.22;6109918;23;20080;-73
2020/12/06 08:48:42;;;;;;;11.55;7.25;;;;;;;3.14;100.00;98742.72;6159362;23;20596;-73
2020/12/06 08:51:33;;;;;;;9.00;5.65;;;;;;;3.16;100.00;98741.63;6110401;23;20013;-73
2020/12/06 08:54:00;;;;;;;11.05;6.20;;;;;;;3.17;100.00;98741.31;6160253;23;20012;-73
2020/12/06 08:56:39;;;;;;;10.27;5.50;;;;;;;3.20;100.00;98753.66;6183927;23;20334;-73
2020/12/06 08:59:08;;;;;;;11.30;6.75;;;;;;;3.21;100.00;98750.63;6134601;23;20438;-73
2020/12/06 09:01:48;;;;;;;11.93;5.85;;;;;;;3.21;100.00;98745.13;6159470;23;20013;-73
2020/12/06 09:04:14;;;;;;;8.95;5.65;;;;;;;3.23;100.00;98751.16;6159164;23;20016;-74
2020/12/06 09:06:40;;;;;;;10.75;6.20;;;;;;;3.25;100.00;98750.84;6160609;23;20056;-73
2020/12/06 09:09:06;;;;;;;7.88;4.95;;;;;;;3.27;100.00;98752.22;6158144;23;20009;-74
2020/12/06 09:11:32;;;;;;;7.20;5.18;;;;;;;3.28;100.00;98751.09;6159667;23;20060;-73
2020/12/06 09:13:57;;;;;;;15.00;8.65;;;;;;;3.31;100.00;98756.00;6160690;23;20005;-73
2020/12/06 09:16:23;;;;;;;11.95;8.50;;;;;;;3.33;100.00;98761.22;6160758;23;20434;-73
2020/12/06 09:18:48;;;;;;;12.18;6.90;;;;;;;3.34;100.00;98771.91;6110495;23;20012;-74
2020/12/06 09:21:14;;;;;;;11.77;7.25;;;;;;;3.36;100.00;98775.16;6159430;23;20130;-73
2020/12/06 09:23:40;;;;;;;18.05;9.10;;;;;;;3.40;100.00;98777.31;6160352;23;20312;-74
2020/12/06 09:26:06;;;;;;;16.95;10.35;;;;;;;3.40;100.00;98782.81;6177305;23;20024;-73
2020/12/06 09:28:32;;;;;;;16.98;10.88;;;;;;;3.42;100.00;98784.16;6159271;23;20009;-74
2020/12/06 09:30:58;;;;;;;19.98;12.10;;;;;;;3.46;100.00;98801.72;6158800;23;20009;-73
2020/12/06 09:33:23;;;;;;;11.85;7.88;;;;;;;3.48;100.00;98798.66;6160602;23;20009;-73
2020/12/06 09:35:49;;;;;;;12.63;8.15;;;;;;;3.48;100.00;98801.41;6158926;23;20076;-73
2020/12/06 09:38:15;;;;;;;13.68;8.68;;;;;;;3.51;100.00;98809.06;6158920;23;20001;-74
2020/12/06 09:40:41;;;;;;;20.60;12.35;;;;;;;3.54;100.00;98814.00;6183888;23;20009;-74
2020/12/06 09:43:06;;;;;;;18.83;10.20;;;;;;;3.54;100.00;98814.00;6134375;23;20044;-73
2020/12/06 09:45:32;;;;;;;15.82;10.77;;;;;;;3.56;100.00;98814.50;6158918;23;20013;-73
2020/12/06 09:47:57;;;;;;;16.33;10.55;;;;;;;3.57;100.00;98824.38;6159605;23;20017;-73
2020/12/06 09:50:23;;;;;;;17.35;11.43;;;;;;;3.59;100.00;98822.16;6159049;23;20009;-75
2020/12/06 09:52:48;;;;;;;14.80;9.25;;;;;;;3.60;100.00;98829.31;6158439;23;20040;-73
2020/12/06 09:55:14;;;;;;;18.65;11.27;;;;;;;3.61;100.00;98830.94;6157576;23;20010;-74
2020/12/06 09:57:40;;;;;;;18.50;11.43;;;;;;;3.63;100.00;98836.97;6159235;23;20427;-73
2020/12/06 10:00:05;;;;;;;19.10;11.23;;;;;;;3.64;100.00;98830.34;6134583;23;20009;-73
2020/12/06 10:02:31;;;;;;;22.75;12.50;;;;;;;3.67;100.00;98835.25;6133941;23;20013;-74
2020/12/06 10:04:57;;;;;;;22.13;14.02;;;;;;;3.68;100.00;98839.66;6134120;23;20006;-73
2020/12/06 10:07:24;;;;;;;20.52;15.48;;;;;;;3.70;100.00;98845.66;6158516;23;20014;-74
2020/12/06 10:09:50;;;;;;;22.30;15.00;;;;;;;3.73;100.00;98845.09;6158615;23;20010;-73
2020/12/06 10:12:15;;;;;;;18.83;12.13;;;;;;;3.74;100.00;98846.72;6158658;23;20010;-73
2020/12/06 10:14:41;;;;;;;19.05;13.00;;;;;;;3.79;100.00;98849.44;6160472;23;20061;-73
2020/12/06 10:17:07;;;;;;;18.40;12.00;;;;;;;3.83;100.00;98848.84;6158409;23;20319;-73
2020/12/06 10:19:32;;;;;;;16.90;11.48;;;;;;;3.85;100.00;98857.63;6160445;23;20013;-74
2020/12/06 10:21:58;;;;;;;21.42;14.73;;;;;;;3.86;100.00;98862.00;6158618;23;20009;-74
2020/12/06 10:24:23;;;;;;;30.90;17.35;;;;;;;3.88;100.00;98862.53;6163017;23;20435;-73
2020/12/06 10:26:53;;;;;;;37.47;22.90;;;;;;;3.92;100.00;98869.06;6168164;23;20009;-73
2020/12/06 10:29:19;;;;;;;29.02;16.42;;;;;;;3.94;100.00;98872.34;6144301;23;20337;-73
2020/12/06 10:31:44;;;;;;;24.85;16.13;;;;;;;3.96;100.00;98870.13;6219000;23;20090;-73
2020/12/06 10:34:10;;;;;;;28.50;16.88;;;;;;;4.00;100.00;98876.69;6143803;23;20005;-73
2020/12/06 10:36:35;;;;;;;23.17;13.48;;;;;;;4.04;100.00;98872.25;6192916;23;20005;-73
2020/12/06 10:39:01;;;;;;;27.48;15.85;;;;;;;4.07;100.00;98871.66;6219572;23;20001;-73
2020/12/06 10:41:26;;;;;;;29.05;17.38;;;;;;;4.12;100.00;98873.53;6219927;23;20422;-73
2020/12/06 10:43:52;;;;;;;31.48;18.67;;;;;;;4.15;100.00;98871.03;6168434;23;20020;-73
2020/12/06 10:46:17;;;;;;;24.90;16.30;;;;;;;4.19;100.00;98874.00;6168223;23;20013;-73
2020/12/06 10:48:43;;;;;;;27.35;17.08;;;;;;;4.23;100.00;98870.41;6220023;23;20000;-73
2020/12/06 10:51:09;;;;;;;21.42;13.88;;;;;;;4.27;100.00;98869.81;6219625;23;20012;-73
2020/12/06 10:53:34;;;;;;;26.73;16.40;;;;;;;4.30;100.00;98886.53;6219583;23;20031;-73
2020/12/06 10:56:01;;;;;;;23.27;14.73;;;;;;;4.34;100.00;98878.50;6219233;23;20019;-73
2020/12/06 10:58:27;;;;;;;21.25;13.55;;;;;;;4.38;100.00;98877.63;6168605;23;20434;-73
2020/12/06 11:00:53;;;;;;;19.05;13.65;;;;;;;4.41;100.00;98879.78;6193275;23;20088;-73
2020/12/06 11:03:18;;;;;;;18.00;12.07;;;;;;;4.45;100.00;98880.81;6192947;23;20012;-73
2020/12/06 11:05:44;;;;;;;15.15;11.60;;;;;;;4.50;100.00;98882.72;6193380;23;20390;-73
2020/12/06 11:08:09;;;;;;;21.48;12.40;;;;;;;4.53;100.00;98884.88;6193051;23;20055;-73
2020/12/06 11:10:35;;;;;;;16.60;11.55;;;;;;;4.57;100.00;98883.19;6192632;23;20584;-73
2020/12/06 11:13:00;;;;;;;18.05;10.98;;;;;;;4.61;100.00;98889.72;6192868;23;20425;-73
2020/12/06 11:15:26;;;;;;;14.95;10.25;;;;;;;4.63;100.00;98889.44;6219137;23;20008;-73
2020/12/06 11:17:52;;;;;;;16.00;10.77;;;;;;;4.67;100.00;98885.78;6192614;23;20207;-73
2020/12/06 11:20:17;;;;;;;14.50;9.70;;;;;;;4.73;100.00;98878.28;6218691;23;20334;-73
2020/12/06 11:22:43;;;;;;;20.30;11.43;;;;;;;4.78;100.00;98886.47;6218061;23;20009;-73
2020/12/06 11:25:08;;;;;;;13.73;9.02;;;;;;;4.83;100.00;98885.59;6166571;23;20017;-73